LPE2121 SPJC-SPQU
Flight info
| Callsign | LPE2121 |
|---|---|
| Flight time | N/A |
| Altitude | 35000 |
| Route | PAKOL5 AKSOL UT222 ASUPA ASUP1B |
| Aircraft | A320/M-SDE3FGHIRWY/LB1 |
Departure
| Time | 2026-04-27 03:43 |
|---|---|
| Airport | Jorge Chávez International Airport (SPJC) |
Arrival
| Time | N/A |
|---|---|
| Airport | Rodríguez Ballón International Airport (SPQU) |
| Time | Latitude | Longitude | Altitude | Speed | Heading |
|---|---|---|---|---|---|
| 2026-04-27 03:28 | -12.02770 | -77.11471 | 81 ft | 0 kts | 244° |
| 2026-04-27 03:28 | -12.02768 | -77.11466 | 85 ft | 2 kts | 244° |
| 2026-04-27 03:29 | -12.02759 | -77.11448 | 82 ft | 3 kts | 248° |
| 2026-04-27 03:29 | -12.02753 | -77.11429 | 84 ft | 3 kts | 263° |
| 2026-04-27 03:29 | -12.02753 | -77.11412 | 85 ft | 3 kts | 312° |
| 2026-04-27 03:29 | -12.02758 | -77.11407 | 86 ft | 0 kts | 334° |
| 2026-04-27 03:33 | -12.02739 | -77.11417 | 85 ft | 6 kts | 334° |
| 2026-04-27 03:33 | -12.02683 | -77.11444 | 85 ft | 12 kts | 335° |
| 2026-04-27 03:33 | -12.02588 | -77.11491 | 83 ft | 18 kts | 334° |
| 2026-04-27 03:33 | -12.02454 | -77.11554 | 81 ft | 24 kts | 334° |
| 2026-04-27 03:34 | -12.02291 | -77.11638 | 71 ft | 28 kts | 334° |
| 2026-04-27 03:34 | -12.02106 | -77.11729 | 67 ft | 31 kts | 334° |
| 2026-04-27 03:34 | -12.01926 | -77.11817 | 63 ft | 18 kts | 334° |
| 2026-04-27 03:34 | -12.01837 | -77.11826 | 67 ft | 12 kts | 36° |
| 2026-04-27 03:35 | -12.01767 | -77.11816 | 59 ft | 10 kts | 340° |
| 2026-04-27 03:35 | -12.01704 | -77.11847 | 59 ft | 10 kts | 333° |
| 2026-04-27 03:35 | -12.01644 | -77.11878 | 61 ft | 9 kts | 333° |
| 2026-04-27 03:35 | -12.01581 | -77.11911 | 64 ft | 15 kts | 332° |
| 2026-04-27 03:36 | -12.01435 | -77.11987 | 58 ft | 29 kts | 334° |
| 2026-04-27 03:36 | -12.01261 | -77.12096 | 59 ft | 28 kts | 312° |
| 2026-04-27 03:36 | -12.01114 | -77.12209 | 54 ft | 26 kts | 333° |
| 2026-04-27 03:36 | -12.00969 | -77.12279 | 52 ft | 15 kts | 335° |
| 2026-04-27 03:37 | -12.00931 | -77.12297 | 51 ft | 0 kts | 335° |
| 2026-04-27 03:37 | -12.00932 | -77.12297 | 51 ft | 0 kts | 335° |
| 2026-04-27 03:38 | -12.00928 | -77.12299 | 48 ft | 4 kts | 335° |
| 2026-04-27 03:38 | -12.00862 | -77.12303 | 51 ft | 10 kts | 39° |
| 2026-04-27 03:38 | -12.00820 | -77.12229 | 52 ft | 9 kts | 62° |
| 2026-04-27 03:38 | -12.00817 | -77.12224 | 52 ft | 0 kts | 62° |
| 2026-04-27 03:40 | -12.00812 | -77.12215 | 52 ft | 7 kts | 62° |
| 2026-04-27 03:40 | -12.00788 | -77.12168 | 50 ft | 7 kts | 63° |
| 2026-04-27 03:41 | -12.00782 | -77.12128 | 52 ft | 0 kts | 147° |
| 2026-04-27 03:41 | -12.00783 | -77.12127 | 52 ft | 1 kts | 148° |
| 2026-04-27 03:41 | -12.00787 | -77.12125 | 52 ft | 0 kts | 150° |
| 2026-04-27 03:42 | -12.00860 | -77.12086 | 52 ft | 44 kts | 154° |
| 2026-04-27 03:42 | -12.01398 | -77.11822 | 64 ft | 124 kts | 154° |
| 2026-04-27 03:43 | -12.02314 | -77.11377 | 474 ft | 152 kts | 155° |
| 2026-04-27 03:43 | -12.03265 | -77.10916 | 1324 ft | 150 kts | 155° |
| 2026-04-27 03:43 | -12.04240 | -77.10434 | 1749 ft | 165 kts | 154° |
| 2026-04-27 03:43 | -12.05331 | -77.09895 | 2041 ft | 187 kts | 155° |
| 2026-04-27 03:44 | -12.06583 | -77.09278 | 2319 ft | 212 kts | 154° |
| 2026-04-27 03:44 | -12.07979 | -77.08567 | 2704 ft | 236 kts | 148° |
| 2026-04-27 03:44 | -12.09223 | -77.07359 | 3110 ft | 258 kts | 127° |
| 2026-04-27 03:44 | -12.10390 | -77.05919 | 3856 ft | 266 kts | 131° |
| 2026-04-27 03:45 | -12.11661 | -77.04514 | 4660 ft | 272 kts | 133° |
| 2026-04-27 03:45 | -12.12981 | -77.03100 | 5458 ft | 277 kts | 134° |
| 2026-04-27 03:45 | -12.14323 | -77.01676 | 6269 ft | 280 kts | 134° |
| 2026-04-27 03:45 | -12.15701 | -77.00252 | 7032 ft | 283 kts | 135° |
| 2026-04-27 03:46 | -12.17097 | -76.98819 | 7798 ft | 286 kts | 135° |
| 2026-04-27 03:46 | -12.18503 | -76.97371 | 8570 ft | 288 kts | 135° |
| 2026-04-27 03:46 | -12.19918 | -76.95903 | 9325 ft | 291 kts | 134° |
| 2026-04-27 03:46 | -12.21341 | -76.94418 | 10060 ft | 294 kts | 134° |
| 2026-04-27 03:47 | -12.22808 | -76.92883 | 10397 ft | 313 kts | 134° |
| 2026-04-27 03:47 | -12.24380 | -76.91231 | 10610 ft | 332 kts | 134° |
| 2026-04-27 03:47 | -12.26008 | -76.89516 | 11177 ft | 338 kts | 134° |
| 2026-04-27 03:47 | -12.27654 | -76.87781 | 11820 ft | 342 kts | 134° |
| 2026-04-27 03:48 | -12.29319 | -76.86024 | 12435 ft | 346 kts | 134° |
| 2026-04-27 03:48 | -12.31007 | -76.84246 | 13051 ft | 350 kts | 134° |
| 2026-04-27 03:48 | -12.32712 | -76.82455 | 13673 ft | 353 kts | 134° |
| 2026-04-27 03:48 | -12.34435 | -76.80644 | 14229 ft | 357 kts | 134° |
| 2026-04-27 03:49 | -12.36169 | -76.78816 | 14779 ft | 360 kts | 134° |
| 2026-04-27 03:49 | -12.37917 | -76.76973 | 15312 ft | 363 kts | 133° |
| 2026-04-27 03:49 | -12.39683 | -76.75114 | 15842 ft | 366 kts | 133° |
| 2026-04-27 03:49 | -12.41462 | -76.73243 | 16374 ft | 369 kts | 133° |
| 2026-04-27 03:50 | -12.43256 | -76.71353 | 16909 ft | 372 kts | 133° |
| 2026-04-27 03:50 | -12.45042 | -76.69470 | 17406 ft | 375 kts | 133° |
| 2026-04-27 03:50 | -12.46869 | -76.67544 | 17905 ft | 379 kts | 133° |
| 2026-04-27 03:50 | -12.48713 | -76.65598 | 18389 ft | 382 kts | 133° |
| 2026-04-27 03:51 | -12.50574 | -76.63635 | 18854 ft | 385 kts | 133° |
| 2026-04-27 03:51 | -12.52442 | -76.61663 | 19306 ft | 387 kts | 133° |
| 2026-04-27 03:51 | -12.54325 | -76.59677 | 19763 ft | 389 kts | 133° |
| 2026-04-27 03:51 | -12.56213 | -76.57683 | 20206 ft | 392 kts | 133° |
| 2026-04-27 03:52 | -12.58114 | -76.55676 | 20616 ft | 394 kts | 133° |
| 2026-04-27 03:52 | -12.60025 | -76.53657 | 21057 ft | 396 kts | 133° |
| 2026-04-27 03:52 | -12.61946 | -76.51628 | 21492 ft | 398 kts | 133° |
| 2026-04-27 03:52 | -12.63881 | -76.49586 | 21910 ft | 401 kts | 133° |
| 2026-04-27 03:53 | -12.65829 | -76.47529 | 22262 ft | 405 kts | 133° |
| 2026-04-27 03:53 | -12.67798 | -76.45450 | 22655 ft | 407 kts | 133° |
| 2026-04-27 03:53 | -12.69776 | -76.43359 | 23048 ft | 410 kts | 133° |
| 2026-04-27 03:53 | -12.71741 | -76.41280 | 23410 ft | 413 kts | 133° |
| 2026-04-27 03:54 | -12.73742 | -76.39162 | 23782 ft | 415 kts | 133° |
| 2026-04-27 03:54 | -12.75755 | -76.37031 | 24089 ft | 418 kts | 133° |
| 2026-04-27 03:54 | -12.77780 | -76.34885 | 24431 ft | 420 kts | 133° |
| 2026-04-27 03:54 | -12.79812 | -76.32729 | 24795 ft | 420 kts | 133° |
| 2026-04-27 03:55 | -12.81848 | -76.30571 | 25121 ft | 422 kts | 133° |
| 2026-04-27 03:55 | -12.83898 | -76.28402 | 25433 ft | 425 kts | 133° |
| 2026-04-27 03:55 | -12.85960 | -76.26224 | 25714 ft | 427 kts | 133° |
| 2026-04-27 03:55 | -12.88033 | -76.24030 | 26016 ft | 429 kts | 133° |
| 2026-04-27 03:56 | -12.90113 | -76.21826 | 26318 ft | 432 kts | 133° |
| 2026-04-27 03:56 | -12.92206 | -76.19607 | 26643 ft | 434 kts | 133° |
| 2026-04-27 03:56 | -12.94313 | -76.17373 | 26934 ft | 437 kts | 133° |
| 2026-04-27 03:56 | -12.96428 | -76.15130 | 27229 ft | 439 kts | 133° |
| 2026-04-27 03:57 | -12.98556 | -76.12871 | 27474 ft | 442 kts | 133° |
| 2026-04-27 03:57 | -13.00697 | -76.10596 | 27739 ft | 445 kts | 133° |
| 2026-04-27 03:57 | -13.02856 | -76.08303 | 28018 ft | 448 kts | 133° |
| 2026-04-27 03:57 | -13.05022 | -76.06003 | 28326 ft | 450 kts | 133° |
| 2026-04-27 03:58 | -13.07202 | -76.03688 | 28602 ft | 452 kts | 133° |
| 2026-04-27 03:58 | -13.09395 | -76.01360 | 28873 ft | 454 kts | 133° |
| 2026-04-27 03:58 | -13.11598 | -75.99025 | 29128 ft | 457 kts | 133° |
| 2026-04-27 03:58 | -13.13811 | -75.96676 | 29399 ft | 459 kts | 133° |
| 2026-04-27 03:59 | -13.16034 | -75.94313 | 29664 ft | 461 kts | 133° |
| 2026-04-27 03:59 | -13.18268 | -75.91938 | 29959 ft | 463 kts | 133° |
| 2026-04-27 03:59 | -13.20507 | -75.89556 | 30196 ft | 465 kts | 133° |
| 2026-04-27 03:59 | -13.22758 | -75.87160 | 30404 ft | 467 kts | 133° |
| 2026-04-27 04:00 | -13.25017 | -75.84755 | 30598 ft | 469 kts | 133° |
| 2026-04-27 04:00 | -13.27284 | -75.82342 | 30808 ft | 470 kts | 133° |
| 2026-04-27 04:00 | -13.29558 | -75.79920 | 31021 ft | 472 kts | 133° |
| 2026-04-27 04:00 | -13.31838 | -75.77489 | 31274 ft | 473 kts | 133° |
| 2026-04-27 04:01 | -13.34092 | -75.75090 | 31577 ft | 472 kts | 133° |
| 2026-04-27 04:01 | -13.36360 | -75.72658 | 31887 ft | 471 kts | 133° |
| 2026-04-27 04:01 | -13.38614 | -75.70217 | 32166 ft | 470 kts | 133° |
| 2026-04-27 04:01 | -13.40857 | -75.67772 | 32466 ft | 470 kts | 133° |
| 2026-04-27 04:02 | -13.43092 | -75.65330 | 32791 ft | 469 kts | 133° |
| 2026-04-27 04:02 | -13.45327 | -75.62889 | 33155 ft | 468 kts | 133° |
| 2026-04-27 04:02 | -13.47555 | -75.60460 | 33502 ft | 466 kts | 133° |
| 2026-04-27 04:02 | -13.49777 | -75.58038 | 33839 ft | 465 kts | 133° |
| 2026-04-27 04:03 | -13.51999 | -75.55620 | 34128 ft | 465 kts | 133° |
| 2026-04-27 04:03 | -13.54218 | -75.53210 | 34405 ft | 464 kts | 133° |
| 2026-04-27 04:03 | -13.56435 | -75.50803 | 34678 ft | 463 kts | 133° |
| 2026-04-27 04:03 | -13.58647 | -75.48400 | 34991 ft | 462 kts | 133° |
| 2026-04-27 04:04 | -13.60856 | -75.46001 | 35117 ft | 461 kts | 133° |
| 2026-04-27 04:04 | -13.65226 | -75.41255 | 35123 ft | 454 kts | 134° |
| 2026-04-27 04:05 | -13.68819 | -75.37338 | 35124 ft | 452 kts | 133° |
| 2026-04-27 04:05 | -13.73128 | -75.32631 | 35166 ft | 452 kts | 133° |
| 2026-04-27 04:06 | -13.78143 | -75.27162 | 35134 ft | 452 kts | 133° |
| 2026-04-27 04:06 | -13.82456 | -75.22455 | 35136 ft | 452 kts | 133° |
| 2026-04-27 04:07 | -13.88230 | -75.16147 | 35171 ft | 452 kts | 133° |
| 2026-04-27 04:07 | -13.92547 | -75.11436 | 35143 ft | 452 kts | 133° |
| 2026-04-27 04:08 | -13.96835 | -75.06756 | 35153 ft | 452 kts | 133° |
| 2026-04-27 04:08 | -14.01152 | -75.02030 | 35175 ft | 453 kts | 133° |
| 2026-04-27 04:09 | -14.05473 | -74.97295 | 35143 ft | 454 kts | 133° |
| 2026-04-27 04:09 | -14.09798 | -74.92558 | 35147 ft | 454 kts | 133° |
| 2026-04-27 04:10 | -14.14124 | -74.87821 | 35148 ft | 454 kts | 133° |
| 2026-04-27 04:10 | -14.18448 | -74.83084 | 35119 ft | 454 kts | 134° |
| 2026-04-27 04:11 | -14.22775 | -74.78344 | 35161 ft | 454 kts | 133° |
| 2026-04-27 04:11 | -14.27092 | -74.73602 | 35162 ft | 454 kts | 133° |
| 2026-04-27 04:12 | -14.31422 | -74.68849 | 35120 ft | 459 kts | 133° |
| 2026-04-27 04:12 | -14.35819 | -74.64005 | 35167 ft | 472 kts | 133° |
| 2026-04-27 04:13 | -14.40368 | -74.59006 | 35167 ft | 483 kts | 133° |
| 2026-04-27 04:13 | -14.44980 | -74.53931 | 35139 ft | 487 kts | 133° |
| 2026-04-27 04:14 | -14.49622 | -74.48826 | 35175 ft | 487 kts | 133° |
| 2026-04-27 04:14 | -14.54256 | -74.43721 | 35174 ft | 488 kts | 133° |
| 2026-04-27 04:15 | -14.58893 | -74.38608 | 35170 ft | 487 kts | 133° |
| 2026-04-27 04:15 | -14.63521 | -74.33495 | 35194 ft | 487 kts | 133° |
| 2026-04-27 04:16 | -14.68157 | -74.28374 | 35169 ft | 488 kts | 133° |
| 2026-04-27 04:16 | -14.72764 | -74.23290 | 35171 ft | 488 kts | 133° |
| 2026-04-27 04:17 | -14.77402 | -74.18173 | 35195 ft | 488 kts | 133° |
| 2026-04-27 04:17 | -14.81698 | -74.12766 | 35165 ft | 488 kts | 124° |
| 2026-04-27 04:18 | -14.85575 | -74.07002 | 35189 ft | 488 kts | 125° |
| 2026-04-27 04:18 | -14.89466 | -74.01238 | 35189 ft | 488 kts | 125° |
| 2026-04-27 04:19 | -14.93349 | -73.95481 | 35162 ft | 488 kts | 124° |
| 2026-04-27 04:19 | -14.97234 | -73.89717 | 35193 ft | 488 kts | 124° |
| 2026-04-27 04:20 | -15.01110 | -73.83945 | 35192 ft | 489 kts | 124° |
| 2026-04-27 04:20 | -15.04992 | -73.78171 | 35219 ft | 489 kts | 125° |
| 2026-04-27 04:21 | -15.08875 | -73.72384 | 35216 ft | 490 kts | 124° |
| 2026-04-27 04:21 | -15.12764 | -73.66587 | 35217 ft | 490 kts | 124° |
| 2026-04-27 04:22 | -15.16655 | -73.60797 | 35241 ft | 489 kts | 124° |
| 2026-04-27 04:22 | -15.20532 | -73.55007 | 35227 ft | 489 kts | 124° |
| 2026-04-27 04:23 | -15.24408 | -73.49227 | 35246 ft | 488 kts | 124° |
| 2026-04-27 04:23 | -15.28257 | -73.43480 | 35243 ft | 488 kts | 124° |
| 2026-04-27 04:24 | -15.32118 | -73.37704 | 35216 ft | 488 kts | 124° |
| 2026-04-27 04:24 | -15.35976 | -73.31922 | 35233 ft | 488 kts | 124° |
| 2026-04-27 04:25 | -15.39841 | -73.26139 | 35215 ft | 489 kts | 124° |
| 2026-04-27 04:25 | -15.43709 | -73.20332 | 35196 ft | 489 kts | 124° |
| 2026-04-27 04:26 | -15.47586 | -73.14525 | 35197 ft | 490 kts | 124° |
| 2026-04-27 04:26 | -15.51466 | -73.08713 | 35231 ft | 490 kts | 124° |
| 2026-04-27 04:27 | -15.55313 | -73.02924 | 35205 ft | 490 kts | 124° |
| 2026-04-27 04:27 | -15.59181 | -72.97096 | 35208 ft | 490 kts | 124° |
| 2026-04-27 04:28 | -15.61124 | -72.94174 | 34801 ft | 494 kts | 124° |
| 2026-04-27 04:28 | -15.63084 | -72.91228 | 34003 ft | 493 kts | 124° |
| 2026-04-27 04:28 | -15.65015 | -72.88329 | 32943 ft | 485 kts | 124° |
| 2026-04-27 04:28 | -15.66930 | -72.85452 | 31609 ft | 483 kts | 125° |
| 2026-04-27 04:29 | -15.68842 | -72.82579 | 30863 ft | 483 kts | 125° |
| 2026-04-27 04:29 | -15.70739 | -72.79718 | 30617 ft | 476 kts | 125° |
| 2026-04-27 04:29 | -15.72588 | -72.76921 | 30431 ft | 463 kts | 125° |
| 2026-04-27 04:29 | -15.74374 | -72.74220 | 30093 ft | 445 kts | 125° |
| 2026-04-27 04:30 | -15.76103 | -72.71610 | 29280 ft | 434 kts | 126° |
| 2026-04-27 04:30 | -15.77776 | -72.69087 | 28469 ft | 425 kts | 125° |
| 2026-04-27 04:30 | -15.79427 | -72.66593 | 27934 ft | 410 kts | 125° |
| 2026-04-27 04:30 | -15.81010 | -72.64207 | 27537 ft | 393 kts | 125° |
| 2026-04-27 04:31 | -15.82534 | -72.61914 | 27101 ft | 379 kts | 125° |
| 2026-04-27 04:31 | -15.84003 | -72.59689 | 26661 ft | 367 kts | 125° |
| 2026-04-27 04:31 | -15.85421 | -72.57541 | 26255 ft | 355 kts | 125° |
| 2026-04-27 04:31 | -15.86801 | -72.55450 | 25856 ft | 350 kts | 125° |
| 2026-04-27 04:32 | -15.88180 | -72.53361 | 25421 ft | 351 kts | 125° |
| 2026-04-27 04:32 | -15.89557 | -72.51272 | 25027 ft | 350 kts | 125° |
| 2026-04-27 04:32 | -15.90934 | -72.49188 | 24563 ft | 350 kts | 124° |
| 2026-04-27 04:32 | -15.92312 | -72.47104 | 24136 ft | 350 kts | 124° |
| 2026-04-27 04:33 | -15.93688 | -72.45022 | 23688 ft | 349 kts | 124° |
| 2026-04-27 04:33 | -15.95058 | -72.42945 | 23209 ft | 348 kts | 124° |
| 2026-04-27 04:33 | -15.96420 | -72.40878 | 22778 ft | 346 kts | 124° |
| 2026-04-27 04:33 | -15.97775 | -72.38818 | 22377 ft | 344 kts | 124° |
| 2026-04-27 04:34 | -15.99129 | -72.36769 | 21954 ft | 343 kts | 124° |
| 2026-04-27 04:34 | -16.00478 | -72.34732 | 21542 ft | 341 kts | 124° |
| 2026-04-27 04:34 | -16.01827 | -72.32696 | 21122 ft | 341 kts | 124° |
| 2026-04-27 04:34 | -16.03161 | -72.30671 | 20683 ft | 340 kts | 124° |
| 2026-04-27 04:35 | -16.04493 | -72.28644 | 20280 ft | 339 kts | 124° |
| 2026-04-27 04:35 | -16.05827 | -72.26617 | 19872 ft | 339 kts | 124° |
| 2026-04-27 04:35 | -16.07157 | -72.24593 | 19484 ft | 339 kts | 124° |
| 2026-04-27 04:35 | -16.08487 | -72.22569 | 19084 ft | 339 kts | 124° |
| 2026-04-27 04:36 | -16.09821 | -72.20546 | 18677 ft | 339 kts | 124° |
| 2026-04-27 04:36 | -16.11157 | -72.18527 | 18282 ft | 338 kts | 123° |
| 2026-04-27 04:36 | -16.12471 | -72.16542 | 17857 ft | 337 kts | 124° |
| 2026-04-27 04:36 | -16.13813 | -72.14511 | 17115 ft | 346 kts | 124° |
| 2026-04-27 04:37 | -16.15179 | -72.12439 | 16626 ft | 347 kts | 124° |
| 2026-04-27 04:37 | -16.16538 | -72.10379 | 16263 ft | 344 kts | 124° |
| 2026-04-27 04:37 | -16.17891 | -72.08329 | 15867 ft | 343 kts | 124° |
| 2026-04-27 04:37 | -16.19239 | -72.06285 | 15472 ft | 341 kts | 124° |
| 2026-04-27 04:38 | -16.20577 | -72.04253 | 15095 ft | 339 kts | 124° |
| 2026-04-27 04:38 | -16.21906 | -72.02232 | 14715 ft | 337 kts | 124° |
| 2026-04-27 04:38 | -16.23227 | -72.00223 | 14332 ft | 336 kts | 124° |
| 2026-04-27 04:38 | -16.24546 | -71.98217 | 13955 ft | 335 kts | 124° |
| 2026-04-27 04:39 | -16.25859 | -71.96224 | 13510 ft | 333 kts | 124° |
| 2026-04-27 04:39 | -16.27165 | -71.94242 | 13136 ft | 331 kts | 124° |
| 2026-04-27 04:39 | -16.28463 | -71.92272 | 12774 ft | 328 kts | 124° |
| 2026-04-27 04:39 | -16.29726 | -71.90350 | 12407 ft | 322 kts | 124° |
| 2026-04-27 04:40 | -16.30961 | -71.88466 | 12056 ft | 308 kts | 124° |
| 2026-04-27 04:40 | -16.32072 | -71.86599 | 11727 ft | 301 kts | 114° |
| 2026-04-27 04:40 | -16.32668 | -71.84529 | 11372 ft | 299 kts | 97° |
| 2026-04-27 04:40 | -16.32794 | -71.82358 | 11045 ft | 297 kts | 92° |
| 2026-04-27 04:41 | -16.32879 | -71.80257 | 10821 ft | 281 kts | 92° |
| 2026-04-27 04:41 | -16.32961 | -71.78296 | 10745 ft | 266 kts | 92° |
| 2026-04-27 04:41 | -16.33026 | -71.76422 | 10650 ft | 257 kts | 92° |
| 2026-04-27 04:41 | -16.33115 | -71.74585 | 10556 ft | 248 kts | 93° |
| 2026-04-27 04:42 | -16.33211 | -71.72832 | 10462 ft | 240 kts | 93° |
| 2026-04-27 04:42 | -16.33305 | -71.71121 | 10367 ft | 233 kts | 93° |
| 2026-04-27 04:42 | -16.33396 | -71.69435 | 10302 ft | 231 kts | 93° |
| 2026-04-27 04:42 | -16.33486 | -71.67757 | 10130 ft | 232 kts | 93° |
| 2026-04-27 04:43 | -16.33575 | -71.66109 | 9875 ft | 225 kts | 92° |
| 2026-04-27 04:43 | -16.33659 | -71.64543 | 9576 ft | 206 kts | 92° |
| 2026-04-27 04:43 | -16.33736 | -71.63119 | 9316 ft | 186 kts | 92° |
| 2026-04-27 04:43 | -16.33805 | -71.61827 | 9020 ft | 172 kts | 92° |
| 2026-04-27 04:44 | -16.33869 | -71.60622 | 8758 ft | 166 kts | 92° |
| 2026-04-27 04:44 | -16.33937 | -71.59432 | 8496 ft | 163 kts | 93° |
| 2026-04-27 04:44 | -16.33993 | -71.58274 | 8307 ft | 160 kts | 93° |
| 2026-04-27 04:44 | -16.34045 | -71.57304 | 8357 ft | 93 kts | 93° |